Time;durP1;ratioP1;P1;durP2;ratioP2;P2;SDS_P1;SDS_P2;PMS_P1;PMS_P2;Temp;Humidity;BMP_temperature;BMP_pressure;BME280_temperature;BME280_humidity;BME280_pressure;Samples;Min_cycle;Max_cycle;Signal;HPM_P1;HPM_P2
2021/08/07 00:01:05;;;;;;;14.93;13.90;;;16.70;99.90;;;;;;4915148;29;20489;-69
2021/08/07 00:03:31;;;;;;;13.70;13.07;;;16.70;99.90;;;;;;4915242;29;20454;-68
2021/08/07 00:05:58;;;;;;;13.83;13.13;;;16.60;99.90;;;;;;4915239;29;21037;-69
2021/08/07 00:08:26;;;;;;;14.87;13.80;;;16.60;99.90;;;;;;4915532;29;20457;-69
2021/08/07 00:10:53;;;;;;;14.30;13.50;;;16.60;99.90;;;;;;4915458;29;20931;-69
2021/08/07 00:13:20;;;;;;;14.83;13.83;;;16.50;99.90;;;;;;4915191;29;20822;-69
2021/08/07 00:15:47;;;;;;;14.30;13.70;;;16.50;99.90;;;;;;4915260;29;20545;-69
2021/08/07 00:18:13;;;;;;;14.80;14.00;;;16.50;99.90;;;;;;4914956;29;20459;-69
2021/08/07 00:20:40;;;;;;;15.13;14.20;;;16.50;99.90;;;;;;4915222;29;20458;-70
2021/08/07 00:23:07;;;;;;;14.50;13.60;;;16.50;99.90;;;;;;4915114;29;20962;-70
2021/08/07 00:25:35;;;;;;;14.93;14.10;;;16.50;99.90;;;;;;4914821;29;20842;-70
2021/08/07 00:28:02;;;;;;;15.37;14.57;;;16.50;99.90;;;;;;4914848;29;20458;-70
2021/08/07 00:30:28;;;;;;;15.77;14.53;;;16.60;99.90;;;;;;4915116;29;20458;-70
2021/08/07 00:32:55;;;;;;;15.73;14.43;;;16.60;99.90;;;;;;4915175;29;20466;-70
2021/08/07 00:35:22;;;;;;;13.97;13.17;;;16.60;99.90;;;;;;4915050;29;20498;-71
2021/08/07 00:37:48;;;;;;;15.90;15.00;;;16.60;99.90;;;;;;4914942;29;20485;-70
2021/08/07 00:40:15;;;;;;;15.40;14.37;;;16.60;99.90;;;;;;4914805;29;20461;-70
2021/08/07 00:42:43;;;;;;;16.33;15.23;;;16.60;99.90;;;;;;4914596;29;20458;-69
2021/08/07 00:45:11;;;;;;;15.33;13.83;;;16.70;99.90;;;;;;4914896;29;20853;-71
2021/08/07 00:47:38;;;;;;;15.73;14.73;;;16.80;99.90;;;;;;4914910;29;20462;-70
2021/08/07 00:50:07;;;;;;;15.13;14.33;;;16.80;99.90;;;;;;4914803;29;20458;-71
2021/08/07 00:52:33;;;;;;;15.27;14.47;;;16.90;99.90;;;;;;4914661;29;20450;-71
2021/08/07 00:55:00;;;;;;;15.57;14.60;;;16.90;99.90;;;;;;4914554;29;20458;-70
2021/08/07 00:57:27;;;;;;;15.37;14.40;;;16.90;99.90;;;;;;4914320;29;20455;-71
2021/08/07 00:59:55;;;;;;;15.00;14.20;;;16.90;99.90;;;;;;4914605;29;20533;-70
2021/08/07 01:02:25;;;;;;;15.50;14.50;;;16.90;99.90;;;;;;4914601;29;20489;-71
2021/08/07 01:05:01;;;;;;;14.50;13.80;;;16.90;99.90;;;;;;4914793;29;20494;-70
2021/08/07 01:07:33;;;;;;;14.67;13.97;;;16.90;99.90;;;;;;4914608;29;20450;-71
2021/08/07 01:10:10;;;;;;;17.33;16.13;;;16.90;99.90;;;;;;4914599;29;20462;-70
2021/08/07 01:12:46;;;;;;;13.57;12.70;;;16.90;99.90;;;;;;4914390;29;20482;-70
2021/08/07 01:15:20;;;;;;;15.27;14.27;;;16.80;99.90;;;;;;4914517;29;20457;-70
2021/08/07 01:17:48;;;;;;;14.33;13.47;;;16.90;99.90;;;;;;4914596;29;20457;-70
2021/08/07 01:20:18;;;;;;;14.37;13.47;;;16.80;99.90;;;;;;4914548;29;20485;-70
2021/08/07 01:22:57;;;;;;;14.50;13.70;;;16.80;99.90;;;;;;4914504;29;20450;-70
2021/08/07 01:25:30;;;;;;;14.67;13.77;;;16.80;99.90;;;;;;4914589;29;20584;-70
2021/08/07 01:27:58;;;;;;;14.80;13.90;;;16.80;99.90;;;;;;4914309;29;20454;-70
2021/08/07 01:30:25;;;;;;;15.57;14.67;;;16.70;99.90;;;;;;4914752;29;20834;-70
2021/08/07 01:32:55;;;;;;;15.27;14.30;;;16.80;99.90;;;;;;4914646;29;20450;-70
2021/08/07 01:35:22;;;;;;;15.20;14.33;;;16.70;99.90;;;;;;4914471;29;20447;-70
2021/08/07 01:37:49;;;;;;;14.43;13.57;;;16.70;99.90;;;;;;4914292;29;20465;-69
2021/08/07 01:40:16;;;;;;;14.73;14.07;;;16.80;99.90;;;;;;4914260;29;20462;-70
2021/08/07 01:42:42;;;;;;;15.13;14.03;;;16.80;99.90;;;;;;4914435;29;20458;-71
2021/08/07 01:45:11;;;;;;;13.93;13.17;;;16.80;99.90;;;;;;4914311;29;20486;-71
2021/08/07 01:47:43;;;;;;;13.80;13.10;;;16.80;99.90;;;;;;4914275;29;20975;-71
2021/08/07 01:50:15;;;;;;;14.13;13.33;;;16.90;99.90;;;;;;4914447;29;20455;-70
2021/08/07 01:52:46;;;;;;;14.90;14.00;;;16.90;99.90;;;;;;4914201;29;20493;-71
2021/08/07 01:55:16;;;;;;;14.03;13.33;;;16.80;99.90;;;;;;4914093;29;20450;-71
2021/08/07 01:57:50;;;;;;;14.17;13.37;;;16.80;99.90;;;;;;4914417;29;20882;-71
2021/08/07 02:00:20;;;;;;;14.17;13.40;;;16.80;99.90;;;;;;4914133;29;20474;-71
2021/08/07 02:02:48;;;;;;;14.10;13.40;;;16.80;99.90;;;;;;4914044;29;21024;-71
2021/08/07 02:05:17;;;;;;;14.80;13.90;;;16.70;99.90;;;;;;4913890;29;20497;-71
2021/08/07 02:07:45;;;;;;;15.07;14.07;;;16.80;99.90;;;;;;4915837;29;20454;-71
2021/08/07 02:10:13;;;;;;;14.97;14.00;;;16.90;99.90;;;;;;4917547;29;20827;-70
2021/08/07 02:12:39;;;;;;;14.80;13.87;;;16.90;99.90;;;;;;4917721;29;20461;-70
2021/08/07 02:15:07;;;;;;;14.80;14.10;;;17.00;99.90;;;;;;4917659;29;20450;-71
2021/08/07 02:17:35;;;;;;;14.57;13.57;;;16.90;99.90;;;;;;4917362;29;20457;-70
2021/08/07 02:20:02;;;;;;;13.97;13.27;;;16.90;99.90;;;;;;4917300;29;20454;-70
2021/08/07 02:22:30;;;;;;;14.30;13.50;;;16.90;99.90;;;;;;4917494;29;20469;-70
2021/08/07 02:24:56;;;;;;;14.30;13.50;;;16.90;99.90;;;;;;4917450;29;20494;-71
2021/08/07 02:27:23;;;;;;;14.57;13.43;;;16.90;99.90;;;;;;4917294;29;20462;-70
2021/08/07 02:29:50;;;;;;;15.53;14.80;;;16.90;99.90;;;;;;4917435;29;20459;-70
2021/08/07 02:32:17;;;;;;;15.00;14.13;;;17.00;99.90;;;;;;4917215;29;20458;-71
2021/08/07 02:34:46;;;;;;;14.90;13.90;;;17.00;99.90;;;;;;4917207;29;20454;-71
2021/08/07 02:37:13;;;;;;;14.03;13.43;;;17.10;99.90;;;;;;4916900;29;20943;-70
2021/08/07 02:39:41;;;;;;;14.50;13.70;;;17.10;99.90;;;;;;4916928;29;20490;-71
2021/08/07 02:42:08;;;;;;;14.10;13.30;;;17.10;99.90;;;;;;4917208;29;20446;-71
2021/08/07 02:44:35;;;;;;;15.17;14.37;;;17.10;99.90;;;;;;4916839;29;20447;-70
2021/08/07 02:47:02;;;;;;;15.20;14.17;;;17.10;99.90;;;;;;4916750;29;20450;-69
2021/08/07 02:49:29;;;;;;;14.37;13.47;;;16.90;99.90;;;;;;4916844;29;20466;-71
2021/08/07 04:50:50;;;;;;;15.63;14.43;;;16.40;99.90;;;;;;5152134;23;20484;-67
2021/08/07 04:53:17;;;;;;;15.27;14.47;;;16.40;99.90;;;;;;4942573;28;20519;-70
2021/08/07 04:55:43;;;;;;;15.10;14.20;;;16.30;99.90;;;;;;4933525;29;20460;-67
2021/08/07 04:58:14;;;;;;;14.97;14.07;;;16.50;99.90;;;;;;4941632;29;20479;-68
2021/08/07 05:00:40;;;;;;;14.63;14.03;;;16.50;99.90;;;;;;4934717;29;20465;-71
2021/08/07 05:03:07;;;;;;;14.97;14.17;;;16.60;99.90;;;;;;4933110;29;20469;-67
2021/08/07 05:05:34;;;;;;;14.37;13.43;;;16.60;99.90;;;;;;4933023;29;20497;-68
2021/08/07 05:08:02;;;;;;;13.90;13.30;;;16.70;99.90;;;;;;4933654;29;20453;-70
2021/08/07 05:10:28;;;;;;;13.87;12.97;;;16.80;99.90;;;;;;4934060;29;20483;-69
2021/08/07 05:12:55;;;;;;;14.53;13.80;;;16.80;99.90;;;;;;4933759;29;20873;-70
2021/08/07 05:15:22;;;;;;;14.73;13.93;;;16.90;99.90;;;;;;4933990;29;20449;-70
2021/08/07 05:17:48;;;;;;;15.13;14.03;;;17.00;99.90;;;;;;4931583;29;21126;-72
2021/08/07 05:20:16;;;;;;;15.00;14.20;;;17.10;99.90;;;;;;4933318;29;20462;-72
2021/08/07 05:22:43;;;;;;;15.77;14.77;;;17.20;99.90;;;;;;4933238;29;20811;-73
2021/08/07 05:25:35;;;;;;;13.50;12.90;;;17.20;99.90;;;;;;4933298;29;20817;-69
2021/08/07 05:28:01;;;;;;;15.50;14.50;;;17.50;99.90;;;;;;4925871;29;20453;-72
2021/08/07 05:30:28;;;;;;;14.27;13.67;;;17.50;99.90;;;;;;4933279;29;20472;-72
2021/08/07 05:32:55;;;;;;;14.17;13.47;;;17.60;99.90;;;;;;4933241;29;20449;-72
2021/08/07 05:35:23;;;;;;;14.90;14.00;;;17.80;99.90;;;;;;4932875;29;20477;-72
2021/08/07 05:37:50;;;;;;;15.87;14.77;;;18.00;99.90;;;;;;4933018;29;20463;-72
2021/08/07 05:40:16;;;;;;;14.70;13.70;;;18.10;99.90;;;;;;4932767;29;20500;-72
2021/08/07 05:42:44;;;;;;;14.63;13.83;;;18.20;99.90;;;;;;4934957;29;20449;-70
2021/08/07 05:45:12;;;;;;;14.07;13.47;;;18.20;99.90;;;;;;4936751;29;20976;-72
2021/08/07 05:47:38;;;;;;;14.97;14.20;;;18.20;99.90;;;;;;4936825;29;20448;-73
2021/08/07 05:50:07;;;;;;;13.57;12.97;;;18.30;99.90;;;;;;4936419;29;20484;-74
2021/08/07 05:52:34;;;;;;;14.30;13.50;;;18.60;99.90;;;;;;4936273;29;21031;-73
2021/08/07 05:55:00;;;;;;;14.30;13.37;;;19.30;99.90;;;;;;4936152;29;20453;-71
2021/08/07 05:57:27;;;;;;;14.13;13.33;;;20.00;99.90;;;;;;4936763;29;20816;-72
2021/08/07 05:59:55;;;;;;;14.80;13.83;;;20.30;99.90;;;;;;4946952;29;20457;-71
2021/08/07 06:02:22;;;;;;;12.70;12.07;;;20.70;99.90;;;;;;4936544;29;20461;-72
2021/08/07 06:04:49;;;;;;;13.67;12.73;;;20.90;99.90;;;;;;4935864;29;20989;-73
2021/08/07 06:07:17;;;;;;;14.00;13.30;;;20.50;99.90;;;;;;4936256;29;20868;-72
2021/08/07 06:09:43;;;;;;;13.40;12.80;;;20.10;99.90;;;;;;4936465;29;20464;-72
2021/08/07 06:12:10;;;;;;;14.17;13.17;;;19.60;99.90;;;;;;4936425;29;20457;-72
2021/08/07 06:14:37;;;;;;;13.50;12.80;;;19.40;99.90;;;;;;4936427;29;20453;-73
2021/08/07 06:17:05;;;;;;;12.73;11.77;;;19.30;99.90;;;;;;4935913;29;20456;-72
2021/08/07 06:19:32;;;;;;;12.60;12.00;;;19.30;99.90;;;;;;4935990;29;20461;-72
2021/08/07 06:21:58;;;;;;;12.27;11.47;;;19.20;99.90;;;;;;4936128;29;20456;-72
2021/08/07 06:24:25;;;;;;;12.73;12.00;;;19.40;99.90;;;;;;4936196;29;20460;-72
2021/08/07 06:26:52;;;;;;;12.13;11.53;;;19.30;99.90;;;;;;4935885;29;20733;-72
2021/08/07 06:29:18;;;;;;;12.23;11.63;;;19.30;99.90;;;;;;4935827;29;20794;-71
2021/08/07 06:31:45;;;;;;;11.80;11.30;;;19.30;99.90;;;;;;4935877;29;20457;-72
2021/08/07 06:34:13;;;;;;;12.30;11.70;;;19.30;99.90;;;;;;4935969;29;20473;-73
2021/08/07 06:36:40;;;;;;;12.03;11.43;;;19.50;99.90;;;;;;4935911;29;20449;-73
2021/08/07 06:39:07;;;;;;;11.20;10.80;;;19.80;99.90;;;;;;4935842;29;20479;-73
2021/08/07 06:41:34;;;;;;;12.37;11.63;;;20.80;99.90;;;;;;4935730;29;20844;-73
2021/08/07 06:44:01;;;;;;;12.23;11.53;;;21.90;99.90;;;;;;4935547;29;20458;-73
2021/08/07 06:46:27;;;;;;;12.50;11.70;;;22.80;99.90;;;;;;4935561;29;21016;-74
2021/08/07 06:48:55;;;;;;;12.53;11.70;;;23.40;99.90;;;;;;4935402;29;20988;-73
2021/08/07 06:51:23;;;;;;;11.80;11.30;;;23.50;99.90;;;;;;4935473;29;20901;-70
2021/08/07 06:53:51;;;;;;;12.70;12.10;;;23.30;99.90;;;;;;4934466;29;20461;-73
2021/08/07 06:56:17;;;;;;;12.77;12.27;;;23.20;99.90;;;;;;4935335;29;20997;-72
2021/08/07 06:58:44;;;;;;;12.27;11.77;;;23.20;99.90;;;;;;4935376;29;20945;-73
2021/08/07 07:01:11;;;;;;;12.57;11.97;;;23.00;99.90;;;;;;4935677;29;20457;-73
2021/08/07 07:03:38;;;;;;;12.73;12.10;;;22.70;99.90;;;;;;4935308;29;20483;-73
2021/08/07 07:06:05;;;;;;;12.40;11.60;;;23.10;99.90;;;;;;4935219;29;20913;-74
2021/08/07 07:08:33;;;;;;;12.27;11.67;;;23.50;99.90;;;;;;4935105;29;20486;-72
2021/08/07 07:10:59;;;;;;;14.30;12.07;;;23.90;99.90;;;;;;4935093;29;20797;-72
2021/08/07 07:13:26;;;;;;;13.03;12.10;;;24.20;99.90;;;;;;4935351;29;20542;-71
2021/08/07 07:15:53;;;;;;;11.70;11.30;;;24.70;99.40;;;;;;4935178;29;20453;-71
2021/08/07 07:18:19;;;;;;;12.37;11.87;;;25.00;98.90;;;;;;4935152;29;20460;-71
2021/08/07 07:20:46;;;;;;;12.07;11.47;;;25.30;98.00;;;;;;4934541;29;20481;-71
2021/08/07 07:23:13;;;;;;;11.60;11.10;;;25.20;98.10;;;;;;4935236;29;20453;-71
2021/08/07 07:25:41;;;;;;;12.70;12.20;;;24.90;99.10;;;;;;4935053;29;20489;-72
2021/08/07 07:28:08;;;;;;;11.50;11.00;;;25.20;99.00;;;;;;4935120;29;20462;-72
2021/08/07 07:30:35;;;;;;;12.50;11.80;;;24.90;99.00;;;;;;4934778;29;20809;-71
2021/08/07 07:33:01;;;;;;;12.30;11.67;;;24.60;99.50;;;;;;4934600;29;21141;-72
2021/08/07 07:35:29;;;;;;;12.27;11.77;;;23.90;99.90;;;;;;4934619;29;20454;-72
2021/08/07 07:37:56;;;;;;;12.70;11.90;;;23.60;99.90;;;;;;4934869;29;20463;-72
2021/08/07 07:40:23;;;;;;;11.57;11.13;;;23.20;99.90;;;;;;4934856;29;20454;-72
2021/08/07 07:42:51;;;;;;;12.50;11.90;;;22.80;99.90;;;;;;4934708;29;20457;-72
2021/08/07 07:45:17;;;;;;;11.80;11.30;;;22.70;99.90;;;;;;4934221;29;20583;-73
2021/08/07 07:47:44;;;;;;;11.70;11.20;;;22.70;99.90;;;;;;4934307;29;20500;-72
2021/08/07 07:50:12;;;;;;;11.60;10.90;;;23.20;99.90;;;;;;4934305;29;20500;-73
2021/08/07 07:52:39;;;;;;;10.90;10.50;;;24.10;99.90;;;;;;4934358;29;20472;-73
2021/08/07 07:55:06;;;;;;;12.00;11.30;;;25.10;99.50;;;;;;4934333;29;20454;-72
2021/08/07 07:57:33;;;;;;;12.23;11.60;;;25.60;97.80;;;;;;4934284;29;20500;-73
2021/08/07 08:00:01;;;;;;;11.97;11.30;;;26.00;96.40;;;;;;4934252;29;20465;-72
2021/08/07 08:02:28;;;;;;;11.70;11.20;;;26.00;96.40;;;;;;4934179;29;20449;-72
2021/08/07 08:04:54;;;;;;;11.73;11.23;;;25.40;97.20;;;;;;4934263;29;20461;-73
2021/08/07 08:07:21;;;;;;;11.87;11.30;;;25.20;97.60;;;;;;4934278;29;20485;-73
2021/08/07 08:09:48;;;;;;;12.87;12.00;;;25.30;97.70;;;;;;4934092;29;20457;-72
2021/08/07 08:12:14;;;;;;;11.33;10.87;;;25.70;97.10;;;;;;4934081;29;20861;-72
2021/08/07 08:14:41;;;;;;;11.03;10.63;;;25.80;96.30;;;;;;4933881;29;20462;-72
2021/08/07 08:17:09;;;;;;;11.90;11.50;;;25.60;97.20;;;;;;4934130;29;20460;-72
2021/08/07 08:19:37;;;;;;;11.53;11.00;;;25.50;97.20;;;;;;4933775;29;20461;-72
2021/08/07 08:22:04;;;;;;;11.70;11.20;;;25.40;97.20;;;;;;4933853;29;20922;-73
2021/08/07 08:24:31;;;;;;;11.80;11.40;;;25.30;97.20;;;;;;4933926;29;20457;-72
2021/08/07 08:26:57;;;;;;;12.10;11.53;;;25.10;97.30;;;;;;4933763;29;20497;-72
2021/08/07 08:29:24;;;;;;;11.80;11.27;;;25.30;97.10;;;;;;4933712;29;20937;-71
2021/08/07 08:31:51;;;;;;;11.80;11.27;;;25.30;96.60;;;;;;4933849;29;20461;-73
2021/08/07 08:34:19;;;;;;;12.03;11.43;;;25.40;96.30;;;;;;4933540;29;20464;-72
2021/08/07 08:36:45;;;;;;;12.17;11.40;;;25.30;95.90;;;;;;4933350;29;20450;-72
2021/08/07 08:39:12;;;;;;;11.80;11.10;;;25.50;95.20;;;;;;4933692;29;20461;-72
2021/08/07 08:41:39;;;;;;;11.60;11.20;;;25.30;95.70;;;;;;4933922;29;20456;-72
2021/08/07 08:44:06;;;;;;;11.10;10.70;;;25.20;96.00;;;;;;4933474;29;20458;-72
2021/08/07 08:46:32;;;;;;;12.60;11.73;;;25.00;96.30;;;;;;4933492;29;20492;-72
2021/08/07 08:49:00;;;;;;;12.30;11.60;;;24.60;96.50;;;;;;4933134;29;20478;-73
2021/08/07 08:51:30;;;;;;;12.10;11.60;;;24.60;96.80;;;;;;4933451;29;21035;-72
2021/08/07 08:53:57;;;;;;;11.67;11.07;;;24.50;96.50;;;;;;4933678;29;20457;-71
2021/08/07 08:56:24;;;;;;;11.70;11.17;;;24.60;96.60;;;;;;4933572;29;20480;-73
2021/08/07 08:58:51;;;;;;;11.97;11.20;;;24.80;96.40;;;;;;4933304;29;20924;-73
2021/08/07 09:01:18;;;;;;;11.40;11.00;;;24.90;96.00;;;;;;4933472;29;20472;-72
2021/08/07 09:03:47;;;;;;;12.43;11.50;;;24.80;96.00;;;;;;4933343;29;20544;-73
2021/08/07 09:06:14;;;;;;;11.83;11.33;;;24.70;96.00;;;;;;4933364;29;20540;-73
2021/08/07 09:09:02;;;;;;;11.70;11.10;;;24.80;95.80;;;;;;4933205;29;20461;-73
2021/08/07 09:11:29;;;;;;;11.90;11.30;;;24.80;96.00;;;;;;4933379;29;20477;-72
2021/08/07 09:14:21;;;;;;;11.67;11.20;;;24.80;96.00;;;;;;4933470;29;20500;-73
2021/08/07 09:17:12;;;;;;;12.00;11.30;;;24.70;96.30;;;;;;4934378;29;20690;-73
2021/08/07 09:19:54;;;;;;;11.90;11.07;;;24.80;96.40;;;;;;4937456;29;20442;-73
2021/08/07 09:22:23;;;;;;;11.70;11.20;;;24.90;96.40;;;;;;4937154;29;20453;-73
2021/08/07 09:25:13;;;;;;;12.43;11.93;;;25.20;96.40;;;;;;4937159;29;20453;-73
2021/08/07 09:27:41;;;;;;;12.77;12.13;;;25.50;96.70;;;;;;4930850;29;20500;-74
2021/08/07 09:30:30;;;;;;;11.63;11.23;;;25.90;95.60;;;;;;4937004;29;20471;-71
2021/08/07 09:33:00;;;;;;;13.43;12.53;;;26.50;94.10;;;;;;4937063;29;20941;-71
2021/08/07 09:35:28;;;;;;;13.17;12.40;;;26.70;93.40;;;;;;4937085;29;20457;-72
2021/08/07 09:38:18;;;;;;;11.87;11.47;;;26.50;93.90;;;;;;4937165;29;20445;-72
2021/08/07 09:40:49;;;;;;;12.07;11.57;;;26.60;93.60;;;;;;4936595;29;20977;-71
2021/08/07 09:43:17;;;;;;;10.60;10.10;;;26.50;93.60;;;;;;4936729;29;20453;-72
2021/08/07 09:45:44;;;;;;;12.47;11.97;;;26.40;94.40;;;;;;4936870;29;20449;-71
2021/08/07 09:48:13;;;;;;;12.43;11.83;;;26.40;94.10;;;;;;4936429;29;20911;-72
2021/08/07 09:50:41;;;;;;;12.10;11.70;;;26.50;94.20;;;;;;4936578;29;20488;-71
2021/08/07 09:53:19;;;;;;;13.00;12.30;;;25.90;94.60;;;;;;4936643;29;20449;-71
2021/08/07 09:56:00;;;;;;;12.77;12.27;;;25.90;95.20;;;;;;4936583;29;20461;-71
2021/08/07 09:58:27;;;;;;;12.17;11.57;;;25.70;95.60;;;;;;4936483;29;20449;-71
2021/08/07 10:00:54;;;;;;;12.27;11.77;;;25.50;96.90;;;;;;4936704;29;20449;-71
2021/08/07 10:03:23;;;;;;;13.20;12.60;;;25.20;99.10;;;;;;4936307;29;20449;-72
2021/08/07 10:05:51;;;;;;;12.87;12.23;;;24.70;98.10;;;;;;4936465;29;20493;-72
2021/08/07 10:08:18;;;;;;;15.27;14.40;;;24.40;98.50;;;;;;4936147;29;20493;-72
2021/08/07 10:10:47;;;;;;;13.63;13.13;;;23.80;99.90;;;;;;4936315;29;20467;-72
2021/08/07 10:13:16;;;;;;;14.50;13.83;;;23.30;99.90;;;;;;4936045;29;20459;-70
2021/08/07 10:15:43;;;;;;;17.97;17.17;;;22.80;99.90;;;;;;4936293;29;20461;-72
2021/08/07 10:18:11;;;;;;;22.07;21.07;;;22.30;99.90;;;;;;4935867;29;20521;-74
2021/08/07 10:20:40;;;;;;;24.67;23.57;;;21.80;99.90;;;;;;4936051;29;20516;-73
2021/08/07 10:23:07;;;;;;;27.90;26.90;;;21.20;99.90;;;;;;4935476;29;20468;-74
2021/08/07 10:25:35;;;;;;;27.70;26.50;;;20.60;99.90;;;;;;4935820;29;20836;-74
2021/08/07 10:28:04;;;;;;;31.10;29.50;;;20.20;99.90;;;;;;4934933;29;20501;-75
2021/08/07 10:30:34;;;;;;;31.90;30.17;;;19.80;99.90;;;;;;4935341;29;20449;-77
2021/08/07 10:33:02;;;;;;;31.93;30.43;;;19.60;99.90;;;;;;4935788;29;20957;-77
2021/08/07 10:35:30;;;;;;;31.57;30.13;;;19.50;99.90;;;;;;4935481;29;20494;-77
2021/08/07 10:37:58;;;;;;;33.20;31.40;;;19.60;99.90;;;;;;4935937;29;20449;-75
2021/08/07 10:40:26;;;;;;;33.27;31.70;;;19.60;99.90;;;;;;4936304;29;20476;-77
2021/08/07 10:42:54;;;;;;;33.17;31.60;;;19.60;99.90;;;;;;4936274;29;20453;-75
2021/08/07 10:45:21;;;;;;;33.30;31.90;;;19.70;99.90;;;;;;4935467;29;20458;-75
2021/08/07 10:47:51;;;;;;;33.53;31.93;;;19.70;99.90;;;;;;4935390;29;21005;-76
2021/08/07 10:50:36;;;;;;;32.97;31.47;;;19.60;99.90;;;;;;4935218;29;20496;-76
2021/08/07 10:53:05;;;;;;;33.03;31.53;;;19.50;99.90;;;;;;4935465;29;20460;-76
2021/08/07 10:55:48;;;;;;;32.90;31.40;;;19.40;99.90;;;;;;4935137;29;20953;-75
2021/08/07 10:58:34;;;;;;;32.77;31.20;;;19.30;99.90;;;;;;4935815;29;20441;-74
2021/08/07 11:01:27;;;;;;;31.63;30.27;;;19.20;99.90;;;;;;4935274;29;20453;-75
2021/08/07 11:04:08;;;;;;;31.33;30.00;;;19.20;99.90;;;;;;4935321;29;21196;-75
2021/08/07 11:06:55;;;;;;;31.70;30.10;;;19.10;99.90;;;;;;4935340;29;20457;-75
2021/08/07 11:09:25;;;;;;;31.20;29.57;;;19.30;99.90;;;;;;4921076;29;20457;-75
2021/08/07 11:12:20;;;;;;;31.37;29.80;;;19.20;99.90;;;;;;4935467;29;20464;-75
2021/08/07 11:14:53;;;;;;;32.30;30.97;;;19.10;99.90;;;;;;4935052;29;20469;-74
2021/08/07 11:17:47;;;;;;;34.53;33.03;;;19.10;99.90;;;;;;4935341;29;20446;-75
2021/08/07 11:20:32;;;;;;;33.00;31.50;;;19.10;99.90;;;;;;4934957;29;20473;-76
2021/08/07 11:23:15;;;;;;;33.70;32.00;;;19.00;99.90;;;;;;4934724;29;20871;-75
2021/08/07 11:26:01;;;;;;;33.03;31.43;;;19.00;99.90;;;;;;4934965;29;20445;-75
2021/08/07 11:28:29;;;;;;;32.47;30.97;;;18.90;99.90;;;;;;4933734;29;20500;-78
2021/08/07 11:31:17;;;;;;;32.23;30.70;;;18.80;99.90;;;;;;4934882;29;20469;-75
2021/08/07 11:33:44;;;;;;;31.13;29.53;;;18.60;99.90;;;;;;4934639;29;20469;-77
2021/08/07 11:36:18;;;;;;;32.97;31.27;;;18.60;99.90;;;;;;4934875;29;20453;-75
2021/08/07 11:39:03;;;;;;;32.27;30.77;;;18.60;99.90;;;;;;4934755;29;20961;-76
2021/08/07 11:41:35;;;;;;;33.70;32.00;;;18.60;99.90;;;;;;4934109;29;20453;-74
2021/08/07 11:44:03;;;;;;;33.70;31.97;;;18.60;99.90;;;;;;4934665;29;20464;-75
2021/08/07 11:46:37;;;;;;;33.20;31.50;;;18.70;99.90;;;;;;4934559;29;20540;-74
2021/08/07 11:49:04;;;;;;;31.17;29.67;;;18.70;99.90;;;;;;4934780;29;20609;-74
2021/08/07 11:51:32;;;;;;;34.30;32.40;;;18.70;99.90;;;;;;4934345;29;21032;-75
2021/08/07 11:53:59;;;;;;;32.30;30.83;;;18.80;99.90;;;;;;4934265;29;20509;-74
2021/08/07 11:56:26;;;;;;;33.20;31.50;;;18.80;99.90;;;;;;4934373;29;20457;-76
2021/08/07 11:58:55;;;;;;;33.37;31.77;;;18.80;99.90;;;;;;4934635;29;20517;-77
2021/08/07 12:01:26;;;;;;;34.00;32.10;;;18.80;99.90;;;;;;4934261;29;20849;-77
2021/08/07 12:03:54;;;;;;;34.97;33.20;;;19.00;99.90;;;;;;4934629;29;20446;-76
2021/08/07 12:06:22;;;;;;;34.00;32.30;;;19.20;99.90;;;;;;4934002;29;20457;-76
2021/08/07 12:08:50;;;;;;;34.53;32.83;;;19.20;99.90;;;;;;4934141;29;20521;-76
2021/08/07 12:11:18;;;;;;;34.90;32.80;;;19.30;99.90;;;;;;4934275;29;20461;-76
2021/08/07 12:13:52;;;;;;;35.37;33.50;;;19.20;99.90;;;;;;4934103;29;20461;-76
2021/08/07 12:16:21;;;;;;;34.10;32.50;;;19.20;99.90;;;;;;4933948;29;20458;-77
2021/08/07 12:18:50;;;;;;;34.30;32.50;;;19.20;99.90;;;;;;4933954;29;21003;-76
2021/08/07 12:21:27;;;;;;;34.03;32.33;;;19.20;99.90;;;;;;4933777;29;20480;-77
2021/08/07 12:23:57;;;;;;;34.80;33.20;;;19.20;99.90;;;;;;4934229;29;20445;-76
2021/08/07 12:26:26;;;;;;;34.40;32.80;;;19.20;99.90;;;;;;4934162;29;20825;-76
2021/08/07 12:28:57;;;;;;;33.63;32.07;;;19.10;99.90;;;;;;4933676;29;20507;-74
2021/08/07 12:31:36;;;;;;;35.53;33.63;;;19.20;99.90;;;;;;4933960;29;20868;-77
2021/08/07 12:34:10;;;;;;;34.80;33.20;;;19.10;99.90;;;;;;4933523;29;20453;-76
2021/08/07 12:36:37;;;;;;;34.63;32.97;;;19.10;99.90;;;;;;4933446;29;20453;-77
2021/08/07 12:39:05;;;;;;;33.50;31.80;;;19.10;99.90;;;;;;4933839;29;20449;-77
2021/08/07 12:41:32;;;;;;;33.30;31.70;;;19.00;99.90;;;;;;4933576;29;20973;-76
2021/08/07 12:43:59;;;;;;;32.97;31.33;;;19.00;99.90;;;;;;4933698;29;20453;-77
2021/08/07 12:46:26;;;;;;;32.60;31.00;;;19.00;99.90;;;;;;4933709;29;20460;-77
2021/08/07 12:48:55;;;;;;;34.50;32.83;;;19.10;99.90;;;;;;4933122;29;20984;-77
2021/08/07 12:51:28;;;;;;;34.00;32.30;;;19.20;99.90;;;;;;4932732;29;20540;-77
2021/08/07 12:53:55;;;;;;;33.40;31.90;;;19.10;99.90;;;;;;4933619;29;20453;-77
2021/08/07 12:56:25;;;;;;;33.20;31.70;;;19.10;99.90;;;;;;4933346;29;20950;-74
2021/08/07 12:59:03;;;;;;;32.80;31.10;;;19.00;99.90;;;;;;4933356;29;20453;-75
2021/08/07 13:01:31;;;;;;;33.90;32.00;;;18.80;99.90;;;;;;4933396;29;20469;-74
2021/08/07 13:03:59;;;;;;;32.73;31.03;;;18.80;99.90;;;;;;4932924;29;20457;-77
2021/08/07 13:06:26;;;;;;;33.90;32.03;;;18.70;99.90;;;;;;4933421;29;20461;-75
2021/08/07 13:08:54;;;;;;;34.07;32.20;;;18.70;99.90;;;;;;4932943;29;21036;-76
2021/08/07 13:11:23;;;;;;;32.40;30.80;;;18.60;99.90;;;;;;4932882;29;20453;-75
2021/08/07 13:13:53;;;;;;;33.40;31.60;;;18.60;99.90;;;;;;4933030;29;20449;-75
2021/08/07 13:16:39;;;;;;;33.80;31.90;;;18.60;99.90;;;;;;4933099;29;20465;-75
2021/08/07 13:19:13;;;;;;;35.57;33.57;;;18.60;99.90;;;;;;4933146;29;20457;-76
2021/08/07 13:21:40;;;;;;;34.23;32.33;;;18.60;99.90;;;;;;4933397;29;20508;-77
2021/08/07 13:24:25;;;;;;;34.90;33.00;;;18.50;99.90;;;;;;4933129;29;20462;-76
2021/08/07 13:26:54;;;;;;;35.40;33.30;;;18.40;99.90;;;;;;4933100;29;20460;-77
2021/08/07 13:29:21;;;;;;;36.50;34.40;;;18.40;99.90;;;;;;4932835;29;20488;-78
2021/08/07 13:31:49;;;;;;;36.87;34.87;;;18.50;99.90;;;;;;4933116;29;20452;-75
2021/08/07 13:34:16;;;;;;;36.47;34.63;;;18.40;99.90;;;;;;4932824;29;20457;-74
2021/08/07 13:36:42;;;;;;;36.80;34.70;;;18.20;99.90;;;;;;4932994;29;20462;-75
2021/08/07 13:39:09;;;;;;;34.47;32.73;;;18.10;99.90;;;;;;4933069;29;20448;-74
2021/08/07 13:41:41;;;;;;;35.10;33.03;;;18.00;99.90;;;;;;4932948;29;20501;-74
2021/08/07 13:44:09;;;;;;;34.73;33.07;;;17.80;99.90;;;;;;4932939;29;20488;-74
2021/08/07 13:46:36;;;;;;;33.57;31.97;;;17.80;99.90;;;;;;4933036;29;20464;-75
2021/08/07 13:49:04;;;;;;;34.23;32.60;;;17.70;99.90;;;;;;4932461;29;20489;-74
2021/08/07 13:51:31;;;;;;;33.27;31.67;;;17.70;99.90;;;;;;4932765;29;21040;-74
2021/08/07 13:53:58;;;;;;;32.70;31.07;;;17.60;99.90;;;;;;4932995;29;20469;-76
2021/08/07 13:56:26;;;;;;;33.30;31.90;;;17.60;99.90;;;;;;4933109;29;20470;-74
2021/08/07 13:58:53;;;;;;;33.43;31.93;;;17.50;99.90;;;;;;4932644;29;20958;-75
2021/08/07 14:01:21;;;;;;;32.17;30.67;;;17.50;99.90;;;;;;4932873;29;20472;-75
2021/08/07 14:03:51;;;;;;;31.87;30.37;;;17.30;99.90;;;;;;4934555;29;20453;-75
2021/08/07 14:06:19;;;;;;;32.37;30.97;;;17.30;99.90;;;;;;4936176;29;20949;-76
2021/08/07 14:08:46;;;;;;;32.63;31.13;;;17.20;99.90;;;;;;4936302;29;20572;-77
2021/08/07 14:11:13;;;;;;;32.47;31.10;;;17.20;99.90;;;;;;4936569;29;20457;-78
2021/08/07 14:13:39;;;;;;;32.20;30.70;;;17.30;99.90;;;;;;4936675;29;20461;-80
2021/08/07 14:16:06;;;;;;;31.73;30.43;;;17.20;99.90;;;;;;4936390;29;20839;-80
2021/08/07 14:18:34;;;;;;;34.00;32.40;;;17.20;99.90;;;;;;4936077;29;20457;-85
2021/08/07 14:21:01;;;;;;;33.30;31.80;;;17.20;99.90;;;;;;4936023;29;20452;-80
2021/08/07 14:23:28;;;;;;;34.67;32.97;;;17.30;99.90;;;;;;4936362;29;20464;-80
2021/08/07 14:25:55;;;;;;;35.50;33.53;;;17.40;99.90;;;;;;4936376;29;20540;-79
2021/08/07 14:28:21;;;;;;;33.70;32.10;;;17.30;99.90;;;;;;4936110;29;20501;-78
2021/08/07 14:30:48;;;;;;;33.17;31.67;;;17.20;99.90;;;;;;4936801;29;20481;-79
2021/08/07 14:33:15;;;;;;;32.90;31.40;;;17.20;99.90;;;;;;4939661;29;20466;-79
2021/08/07 14:35:43;;;;;;;34.03;32.27;;;17.10;99.90;;;;;;4945519;29;20449;-79
2021/08/07 14:38:09;;;;;;;33.93;32.20;;;17.10;99.90;;;;;;4956180;29;20446;-80